sensor_id;sensor_type;location;lat;lon;timestamp;pressure;altitude;pressure_sealevel;temperature;humidity
59831;BME280;45711;50.108;13.712;2022-12-07T00:01:41;97610.16;;;3.78;92.83
59831;BME280;45711;50.108;13.712;2022-12-07T00:04:11;97608.91;;;3.47;86.96
59831;BME280;45711;50.108;13.712;2022-12-07T00:06:40;97610.41;;;3.43;87.84
59831;BME280;45711;50.108;13.712;2022-12-07T00:09:09;97612.78;;;4.12;91.00
59831;BME280;45711;50.108;13.712;2022-12-07T00:11:35;97616.22;;;4.13;88.45
59831;BME280;45711;50.108;13.712;2022-12-07T00:14:03;97608.59;;;4.16;86.38
59831;BME280;45711;50.108;13.712;2022-12-07T00:16:31;97601.69;;;3.60;84.93
59831;BME280;45711;50.108;13.712;2022-12-07T00:18:57;97611.63;;;3.36;86.95
59831;BME280;45711;50.108;13.712;2022-12-07T00:21:25;97610.59;;;3.08;87.18
59831;BME280;45711;50.108;13.712;2022-12-07T00:23:53;97598.81;;;2.99;88.64
59831;BME280;45711;50.108;13.712;2022-12-07T00:26:21;97603.84;;;3.46;87.80
59831;BME280;45711;50.108;13.712;2022-12-07T00:28:47;97602.75;;;3.59;91.27
59831;BME280;45711;50.108;13.712;2022-12-07T00:31:13;97604.81;;;3.90;90.26
59831;BME280;45711;50.108;13.712;2022-12-07T00:33:40;97602.13;;;4.07;89.77
59831;BME280;45711;50.108;13.712;2022-12-07T00:36:08;97604.72;;;3.68;86.70
59831;BME280;45711;50.108;13.712;2022-12-07T00:38:36;97594.06;;;3.80;86.13
59831;BME280;45711;50.108;13.712;2022-12-07T00:41:05;97602.72;;;3.42;85.58
59831;BME280;45711;50.108;13.712;2022-12-07T00:43:31;97593.09;;;3.19;82.44
59831;BME280;45711;50.108;13.712;2022-12-07T00:45:56;97593.88;;;4.03;92.27
59831;BME280;45711;50.108;13.712;2022-12-07T00:48:23;97591.09;;;3.60;82.78
59831;BME280;45711;50.108;13.712;2022-12-07T00:50:49;97584.16;;;3.53;83.03
59831;BME280;45711;50.108;13.712;2022-12-07T00:53:15;97586.84;;;2.80;83.83
59831;BME280;45711;50.108;13.712;2022-12-07T00:55:41;97590.47;;;3.36;91.06
59831;BME280;45711;50.108;13.712;2022-12-07T00:58:08;97585.41;;;3.68;88.92
59831;BME280;45711;50.108;13.712;2022-12-07T01:00:35;97586.50;;;4.06;90.07
59831;BME280;45711;50.108;13.712;2022-12-07T01:03:02;97586.06;;;3.75;83.20
59831;BME280;45711;50.108;13.712;2022-12-07T01:05:27;97589.81;;;4.18;85.82
59831;BME280;45711;50.108;13.712;2022-12-07T01:07:53;97598.28;;;4.37;86.09
59831;BME280;45711;50.108;13.712;2022-12-07T01:10:18;97591.06;;;4.54;84.30
59831;BME280;45711;50.108;13.712;2022-12-07T01:12:44;97596.22;;;4.66;90.05
59831;BME280;45711;50.108;13.712;2022-12-07T01:15:11;97593.56;;;4.66;86.42
59831;BME280;45711;50.108;13.712;2022-12-07T01:17:36;97600.38;;;3.96;86.42
59831;BME280;45711;50.108;13.712;2022-12-07T01:20:03;97601.19;;;3.96;89.21
59831;BME280;45711;50.108;13.712;2022-12-07T01:22:29;97601.28;;;4.23;90.82
59831;BME280;45711;50.108;13.712;2022-12-07T01:24:55;97595.06;;;3.96;81.81
59831;BME280;45711;50.108;13.712;2022-12-07T01:27:20;97600.25;;;3.69;88.94
59831;BME280;45711;50.108;13.712;2022-12-07T01:29:46;97594.78;;;3.25;86.28
59831;BME280;45711;50.108;13.712;2022-12-07T01:32:13;97595.78;;;4.08;91.02
59831;BME280;45711;50.108;13.712;2022-12-07T01:34:39;97597.19;;;3.94;83.71
59831;BME280;45711;50.108;13.712;2022-12-07T01:37:04;97598.50;;;3.74;87.93
59831;BME280;45711;50.108;13.712;2022-12-07T01:39:30;97598.00;;;3.77;87.21
59831;BME280;45711;50.108;13.712;2022-12-07T01:41:55;97596.75;;;4.02;89.43
59831;BME280;45711;50.108;13.712;2022-12-07T01:44:22;97587.78;;;3.86;87.65
59831;BME280;45711;50.108;13.712;2022-12-07T01:46:49;97588.47;;;4.15;87.29
59831;BME280;45711;50.108;13.712;2022-12-07T01:49:28;97584.28;;;4.19;86.80
59831;BME280;45711;50.108;13.712;2022-12-07T01:52:00;97582.06;;;4.11;85.52
59831;BME280;45711;50.108;13.712;2022-12-07T01:54:28;97581.81;;;4.13;87.67
59831;BME280;45711;50.108;13.712;2022-12-07T01:56:54;97579.41;;;4.11;87.11
59831;BME280;45711;50.108;13.712;2022-12-07T01:59:23;97581.22;;;3.89;84.96
59831;BME280;45711;50.108;13.712;2022-12-07T02:01:51;97585.91;;;3.31;83.30
59831;BME280;45711;50.108;13.712;2022-12-07T02:04:18;97588.56;;;3.31;91.13
59831;BME280;45711;50.108;13.712;2022-12-07T02:06:46;97587.09;;;3.23;86.79
59831;BME280;45711;50.108;13.712;2022-12-07T02:09:12;97585.88;;;3.65;86.85
59831;BME280;45711;50.108;13.712;2022-12-07T02:11:38;97577.56;;;4.12;91.63
59831;BME280;45711;50.108;13.712;2022-12-07T02:14:05;97583.88;;;4.27;83.94
59831;BME280;45711;50.108;13.712;2022-12-07T02:16:36;97569.81;;;4.27;87.51
59831;BME280;45711;50.108;13.712;2022-12-07T02:19:20;97571.69;;;3.88;80.90
59831;BME280;45711;50.108;13.712;2022-12-07T02:21:52;97570.41;;;3.06;82.71
59831;BME280;45711;50.108;13.712;2022-12-07T02:24:46;97570.28;;;2.84;85.48
59831;BME280;45711;50.108;13.712;2022-12-07T02:30:01;97572.75;;;3.36;87.97
59831;BME280;45711;50.108;13.712;2022-12-07T02:32:35;97565.38;;;3.55;85.94
59831;BME280;45711;50.108;13.712;2022-12-07T02:35:07;97556.03;;;3.86;87.60
59831;BME280;45711;50.108;13.712;2022-12-07T02:37:39;97560.25;;;4.04;90.50
59831;BME280;45711;50.108;13.712;2022-12-07T02:40:11;97561.69;;;3.22;82.72
59831;BME280;45711;50.108;13.712;2022-12-07T02:42:43;97554.03;;;2.64;82.05
59831;BME280;45711;50.108;13.712;2022-12-07T02:48:22;97555.28;;;2.44;84.93
59831;BME280;45711;50.108;13.712;2022-12-07T02:50:49;97551.59;;;2.45;85.36
59831;BME280;45711;50.108;13.712;2022-12-07T02:53:29;97552.81;;;2.55;87.14
59831;BME280;45711;50.108;13.712;2022-12-07T02:55:55;97545.09;;;2.24;84.38
59831;BME280;45711;50.108;13.712;2022-12-07T02:58:30;97541.91;;;2.22;85.80
59831;BME280;45711;50.108;13.712;2022-12-07T03:01:04;97539.53;;;2.09;85.01
59831;BME280;45711;50.108;13.712;2022-12-07T03:03:37;97545.56;;;2.21;87.26
59831;BME280;45711;50.108;13.712;2022-12-07T03:06:10;97539.16;;;2.58;89.75
59831;BME280;45711;50.108;13.712;2022-12-07T03:08:49;97541.94;;;2.39;86.42
59831;BME280;45711;50.108;13.712;2022-12-07T03:11:23;97539.66;;;2.43;85.29
59831;BME280;45711;50.108;13.712;2022-12-07T03:13:55;97537.56;;;2.05;85.14
59831;BME280;45711;50.108;13.712;2022-12-07T03:16:27;97531.63;;;1.97;85.86
59831;BME280;45711;50.108;13.712;2022-12-07T03:19:00;97540.78;;;2.07;87.65
59831;BME280;45711;50.108;13.712;2022-12-07T03:21:32;97528.28;;;2.02;87.18
59831;BME280;45711;50.108;13.712;2022-12-07T03:24:00;97531.63;;;1.86;85.82
59831;BME280;45711;50.108;13.712;2022-12-07T03:26:31;97532.44;;;1.86;87.41
59831;BME280;45711;50.108;13.712;2022-12-07T03:29:01;97532.47;;;1.63;86.74
59831;BME280;45711;50.108;13.712;2022-12-07T03:31:31;97528.19;;;1.73;87.44
59831;BME280;45711;50.108;13.712;2022-12-07T03:34:06;97528.44;;;1.84;85.82
59831;BME280;45711;50.108;13.712;2022-12-07T03:36:39;97529.13;;;1.56;86.17
59831;BME280;45711;50.108;13.712;2022-12-07T03:39:13;97535.66;;;1.88;86.66
59831;BME280;45711;50.108;13.712;2022-12-07T03:41:43;97525.91;;;1.65;87.58
59831;BME280;45711;50.108;13.712;2022-12-07T03:44:10;97521.53;;;1.94;88.54
59831;BME280;45711;50.108;13.712;2022-12-07T03:46:42;97519.78;;;2.00;87.56
59831;BME280;45711;50.108;13.712;2022-12-07T03:49:13;97533.25;;;1.63;86.73
59831;BME280;45711;50.108;13.712;2022-12-07T03:51:49;97528.53;;;1.65;88.34
59831;BME280;45711;50.108;13.712;2022-12-07T03:54:19;97529.41;;;2.75;93.79
59831;BME280;45711;50.108;13.712;2022-12-07T03:56:47;97531.22;;;2.17;88.35
59831;BME280;45711;50.108;13.712;2022-12-07T03:59:15;97535.66;;;2.40;87.32
59831;BME280;45711;50.108;13.712;2022-12-07T04:01:42;97521.34;;;1.49;84.52
59831;BME280;45711;50.108;13.712;2022-12-07T04:04:07;97519.72;;;1.24;85.26
59831;BME280;45711;50.108;13.712;2022-12-07T04:06:34;97520.19;;;1.68;89.63
59831;BME280;45711;50.108;13.712;2022-12-07T04:09:00;97516.84;;;1.38;85.49
59831;BME280;45711;50.108;13.712;2022-12-07T04:11:25;97518.69;;;1.25;85.30
59831;BME280;45711;50.108;13.712;2022-12-07T04:13:51;97520.59;;;0.95;86.20
59831;BME280;45711;50.108;13.712;2022-12-07T04:16:35;97512.44;;;0.85;86.57
59831;BME280;45711;50.108;13.712;2022-12-07T04:19:01;97519.56;;;0.54;87.65
59831;BME280;45711;50.108;13.712;2022-12-07T04:21:26;97521.19;;;1.09;93.22
59831;BME280;45711;50.108;13.712;2022-12-07T04:23:53;97516.53;;;1.46;85.50
59831;BME280;45711;50.108;13.712;2022-12-07T04:26:19;97515.59;;;1.05;85.19
59831;BME280;45711;50.108;13.712;2022-12-07T04:28:44;97518.47;;;0.73;85.13
59831;BME280;45711;50.108;13.712;2022-12-07T04:31:10;97523.72;;;0.62;86.02
59831;BME280;45711;50.108;13.712;2022-12-07T04:33:35;97519.41;;;0.79;88.85
59831;BME280;45711;50.108;13.712;2022-12-07T04:36:01;97511.47;;;0.67;85.38
59831;BME280;45711;50.108;13.712;2022-12-07T04:38:27;97506.16;;;0.56;85.87
59831;BME280;45711;50.108;13.712;2022-12-07T04:40:54;97508.53;;;0.45;86.17
59831;BME280;45711;50.108;13.712;2022-12-07T04:43:19;97514.81;;;0.74;87.50
59831;BME280;45711;50.108;13.712;2022-12-07T04:45:46;97514.91;;;0.68;85.25
59831;BME280;45711;50.108;13.712;2022-12-07T04:48:12;97515.63;;;0.87;87.85
59831;BME280;45711;50.108;13.712;2022-12-07T04:50:39;97511.53;;;0.79;86.81
59831;BME280;45711;50.108;13.712;2022-12-07T04:53:05;97511.84;;;0.71;85.84
59831;BME280;45711;50.108;13.712;2022-12-07T04:55:30;97517.41;;;0.63;86.63
59831;BME280;45711;50.108;13.712;2022-12-07T04:57:57;97510.34;;;0.75;84.40
59831;BME280;45711;50.108;13.712;2022-12-07T05:00:23;97503.25;;;0.75;87.39
59831;BME280;45711;50.108;13.712;2022-12-07T05:02:48;97504.91;;;0.58;84.29
59831;BME280;45711;50.108;13.712;2022-12-07T05:05:14;97506.13;;;0.44;85.09
59831;BME280;45711;50.108;13.712;2022-12-07T05:07:39;97506.66;;;0.34;85.89
59831;BME280;45711;50.108;13.712;2022-12-07T05:10:06;97504.41;;;0.19;86.44
59831;BME280;45711;50.108;13.712;2022-12-07T05:12:32;97508.63;;;0.39;86.22
59831;BME280;45711;50.108;13.712;2022-12-07T05:14:59;97511.41;;;0.25;85.60
59831;BME280;45711;50.108;13.712;2022-12-07T05:17:24;97507.25;;;0.36;85.15
59831;BME280;45711;50.108;13.712;2022-12-07T05:19:50;97515.34;;;0.35;85.18
59831;BME280;45711;50.108;13.712;2022-12-07T05:22:15;97517.69;;;0.43;85.32
59831;BME280;45711;50.108;13.712;2022-12-07T05:24:41;97512.28;;;0.68;84.31
59831;BME280;45711;50.108;13.712;2022-12-07T05:27:06;97510.44;;;0.68;84.82
59831;BME280;45711;50.108;13.712;2022-12-07T05:29:32;97509.03;;;0.54;84.90
59831;BME280;45711;50.108;13.712;2022-12-07T05:31:59;97497.03;;;0.28;85.28
59831;BME280;45711;50.108;13.712;2022-12-07T05:34:24;97500.19;;;0.18;86.33
59831;BME280;45711;50.108;13.712;2022-12-07T05:36:50;97502.03;;;0.48;87.29
59831;BME280;45711;50.108;13.712;2022-12-07T05:39:16;97498.81;;;0.88;89.24
59831;BME280;45711;50.108;13.712;2022-12-07T05:41:41;97504.00;;;0.64;86.28
59831;BME280;45711;50.108;13.712;2022-12-07T05:44:25;97501.00;;;0.49;86.08
59831;BME280;45711;50.108;13.712;2022-12-07T05:46:51;97494.34;;;0.16;86.37
59831;BME280;45711;50.108;13.712;2022-12-07T05:49:18;97498.13;;;0.20;85.88
59831;BME280;45711;50.108;13.712;2022-12-07T05:51:43;97500.94;;;0.07;86.88
59831;BME280;45711;50.108;13.712;2022-12-07T05:54:09;97492.81;;;0.09;86.96
59831;BME280;45711;50.108;13.712;2022-12-07T05:56:35;97492.59;;;0.10;87.96
59831;BME280;45711;50.108;13.712;2022-12-07T05:59:00;97495.44;;;0.27;86.29
59831;BME280;45711;50.108;13.712;2022-12-07T06:01:44;97502.66;;;0.62;87.75
59831;BME280;45711;50.108;13.712;2022-12-07T06:04:10;97496.78;;;0.30;85.96
59831;BME280;45711;50.108;13.712;2022-12-07T06:06:37;97492.97;;;0.86;92.55
59831;BME280;45711;50.108;13.712;2022-12-07T06:09:03;97496.84;;;0.41;84.70
59831;BME280;45711;50.108;13.712;2022-12-07T06:11:29;97502.25;;;0.88;86.29
59831;BME280;45711;50.108;13.712;2022-12-07T06:14:13;97503.69;;;1.38;89.58
59831;BME280;45711;50.108;13.712;2022-12-07T06:16:39;97494.97;;;1.37;88.11
59831;BME280;45711;50.108;13.712;2022-12-07T06:19:04;97489.91;;;1.12;91.48
59831;BME280;45711;50.108;13.712;2022-12-07T06:21:30;97490.50;;;1.61;84.23
59831;BME280;45711;50.108;13.712;2022-12-07T06:23:57;97490.56;;;1.78;88.65
59831;BME280;45711;50.108;13.712;2022-12-07T06:26:22;97486.00;;;1.73;86.82
59831;BME280;45711;50.108;13.712;2022-12-07T06:28:48;97480.75;;;1.38;88.29
59831;BME280;45711;50.108;13.712;2022-12-07T06:31:14;97482.34;;;1.63;86.77
59831;BME280;45711;50.108;13.712;2022-12-07T06:33:40;97487.50;;;1.46;88.25
59831;BME280;45711;50.108;13.712;2022-12-07T06:36:06;97481.28;;;0.82;85.15
59831;BME280;45711;50.108;13.712;2022-12-07T06:38:31;97478.09;;;0.49;85.24
59831;BME280;45711;50.108;13.712;2022-12-07T06:40:58;97479.75;;;0.62;89.61
59831;BME280;45711;50.108;13.712;2022-12-07T06:43:24;97480.69;;;0.38;87.03
59831;BME280;45711;50.108;13.712;2022-12-07T06:45:49;97485.44;;;1.13;84.97
59831;BME280;45711;50.108;13.712;2022-12-07T06:48:16;97475.31;;;0.74;86.83
59831;BME280;45711;50.108;13.712;2022-12-07T06:50:44;97480.00;;;0.72;84.71
59831;BME280;45711;50.108;13.712;2022-12-07T06:53:10;97482.38;;;0.74;84.87
59831;BME280;45711;50.108;13.712;2022-12-07T06:55:35;97480.56;;;0.33;86.54
59831;BME280;45711;50.108;13.712;2022-12-07T06:58:02;97476.03;;;0.21;87.44
59831;BME280;45711;50.108;13.712;2022-12-07T07:00:28;97485.56;;;0.22;87.34
59831;BME280;45711;50.108;13.712;2022-12-07T07:02:53;97479.38;;;0.59;90.08
59831;BME280;45711;50.108;13.712;2022-12-07T07:05:19;97481.47;;;0.27;87.27
59831;BME280;45711;50.108;13.712;2022-12-07T07:07:47;97482.28;;;0.39;87.49
59831;BME280;45711;50.108;13.712;2022-12-07T07:10:13;97476.91;;;0.34;86.95
59831;BME280;45711;50.108;13.712;2022-12-07T07:12:38;97488.00;;;0.78;89.02
59831;BME280;45711;50.108;13.712;2022-12-07T07:15:06;97478.91;;;1.04;86.99
59831;BME280;45711;50.108;13.712;2022-12-07T07:17:32;97478.19;;;0.85;85.89
59831;BME280;45711;50.108;13.712;2022-12-07T07:19:58;97476.19;;;0.68;86.25
59831;BME280;45711;50.108;13.712;2022-12-07T07:22:23;97483.81;;;1.00;85.94
59831;BME280;45711;50.108;13.712;2022-12-07T07:24:49;97491.53;;;1.13;86.79
59831;BME280;45711;50.108;13.712;2022-12-07T07:27:14;97486.06;;;0.73;86.14
59831;BME280;45711;50.108;13.712;2022-12-07T07:29:40;97492.81;;;0.69;86.32
59831;BME280;45711;50.108;13.712;2022-12-07T07:32:07;97493.91;;;1.03;85.34
59831;BME280;45711;50.108;13.712;2022-12-07T07:34:32;97495.50;;;0.92;85.29
59831;BME280;45711;50.108;13.712;2022-12-07T07:36:58;97486.91;;;0.97;86.96
59831;BME280;45711;50.108;13.712;2022-12-07T07:39:23;97486.09;;;0.85;84.76
59831;BME280;45711;50.108;13.712;2022-12-07T07:41:49;97489.16;;;0.82;84.48
59831;BME280;45711;50.108;13.712;2022-12-07T07:44:14;97503.97;;;0.94;86.01
59831;BME280;45711;50.108;13.712;2022-12-07T07:46:40;97498.72;;;0.94;85.53
59831;BME280;45711;50.108;13.712;2022-12-07T07:49:08;97498.31;;;1.44;85.32
59831;BME280;45711;50.108;13.712;2022-12-07T07:51:34;97508.28;;;2.18;88.47
59831;BME280;45711;50.108;13.712;2022-12-07T07:53:59;97504.56;;;2.59;89.30
59831;BME280;45711;50.108;13.712;2022-12-07T07:56:25;97510.59;;;2.71;89.27
59831;BME280;45711;50.108;13.712;2022-12-07T07:58:51;97509.84;;;2.59;83.12
59831;BME280;45711;50.108;13.712;2022-12-07T08:01:17;97510.06;;;2.29;86.63
59831;BME280;45711;50.108;13.712;2022-12-07T08:03:45;97499.94;;;2.38;84.76
59831;BME280;45711;50.108;13.712;2022-12-07T08:06:12;97514.31;;;1.90;85.89
59831;BME280;45711;50.108;13.712;2022-12-07T08:08:38;97500.09;;;1.79;83.37
59831;BME280;45711;50.108;13.712;2022-12-07T08:11:05;97514.44;;;2.81;90.67
59831;BME280;45711;50.108;13.712;2022-12-07T08:13:30;97503.91;;;2.23;82.36
59831;BME280;45711;50.108;13.712;2022-12-07T08:15:56;97516.59;;;1.98;85.67
59831;BME280;45711;50.108;13.712;2022-12-07T08:18:21;97512.16;;;1.75;88.83
59831;BME280;45711;50.108;13.712;2022-12-07T08:20:47;97514.00;;;1.28;84.68
59831;BME280;45711;50.108;13.712;2022-12-07T08:23:14;97513.50;;;1.77;88.81
59831;BME280;45711;50.108;13.712;2022-12-07T08:25:40;97514.75;;;1.98;84.95
59831;BME280;45711;50.108;13.712;2022-12-07T08:28:06;97513.53;;;2.58;89.30
59831;BME280;45711;50.108;13.712;2022-12-07T08:30:32;97513.69;;;3.14;87.37
59831;BME280;45711;50.108;13.712;2022-12-07T08:32:58;97506.91;;;2.15;81.63
59831;BME280;45711;50.108;13.712;2022-12-07T08:35:24;97518.22;;;2.85;86.58
59831;BME280;45711;50.108;13.712;2022-12-07T08:37:49;97509.81;;;3.05;89.02
59831;BME280;45711;50.108;13.712;2022-12-07T08:40:16;97513.50;;;3.03;86.88
59831;BME280;45711;50.108;13.712;2022-12-07T08:42:44;97509.84;;;2.59;85.23
59831;BME280;45711;50.108;13.712;2022-12-07T08:45:11;97509.72;;;2.25;83.06
59831;BME280;45711;50.108;13.712;2022-12-07T08:47:40;97504.34;;;2.32;84.30
59831;BME280;45711;50.108;13.712;2022-12-07T08:50:08;97511.53;;;2.37;84.76
59831;BME280;45711;50.108;13.712;2022-12-07T08:52:35;97510.69;;;2.19;82.06
59831;BME280;45711;50.108;13.712;2022-12-07T08:55:03;97504.00;;;1.88;83.24
59831;BME280;45711;50.108;13.712;2022-12-07T08:57:32;97512.06;;;2.50;86.42
59831;BME280;45711;50.108;13.712;2022-12-07T08:59:59;97504.88;;;2.34;81.59
59831;BME280;45711;50.108;13.712;2022-12-07T09:02:25;97509.84;;;2.59;86.46
59831;BME280;45711;50.108;13.712;2022-12-07T09:04:51;97513.28;;;2.31;82.31
59831;BME280;45711;50.108;13.712;2022-12-07T09:07:16;97509.41;;;2.50;87.36
59831;BME280;45711;50.108;13.712;2022-12-07T09:09:42;97512.66;;;2.69;84.05
59831;BME280;45711;50.108;13.712;2022-12-07T09:12:07;97520.25;;;3.11;89.17
59831;BME280;45711;50.108;13.712;2022-12-07T09:14:34;97526.41;;;3.50;86.93
59831;BME280;45711;50.108;13.712;2022-12-07T09:17:05;97520.63;;;3.70;86.31
59831;BME280;45711;50.108;13.712;2022-12-07T09:19:31;97530.66;;;3.51;82.83
59831;BME280;45711;50.108;13.712;2022-12-07T09:21:56;97521.66;;;3.69;87.54
59831;BME280;45711;50.108;13.712;2022-12-07T09:24:22;97525.94;;;3.53;83.50
59831;BME280;45711;50.108;13.712;2022-12-07T09:26:47;97541.09;;;3.97;87.57
59831;BME280;45711;50.108;13.712;2022-12-07T09:29:13;97532.84;;;3.93;85.53
59831;BME280;45711;50.108;13.712;2022-12-07T09:31:40;97529.38;;;3.71;82.93
59831;BME280;45711;50.108;13.712;2022-12-07T09:34:05;97523.81;;;3.72;82.05
59831;BME280;45711;50.108;13.712;2022-12-07T09:36:32;97526.06;;;3.81;86.27
59831;BME280;45711;50.108;13.712;2022-12-07T09:38:58;97515.22;;;4.04;87.92
59831;BME280;45711;50.108;13.712;2022-12-07T09:41:25;97525.09;;;3.70;82.13
59831;BME280;45711;50.108;13.712;2022-12-07T09:43:52;97518.88;;;3.59;83.92
59831;BME280;45711;50.108;13.712;2022-12-07T09:46:19;97523.84;;;3.39;85.88
59831;BME280;45711;50.108;13.712;2022-12-07T09:48:48;97533.59;;;3.72;87.40
59831;BME280;45711;50.108;13.712;2022-12-07T09:51:17;97529.75;;;3.80;86.79
59831;BME280;45711;50.108;13.712;2022-12-07T09:53:43;97531.97;;;3.88;87.51
59831;BME280;45711;50.108;13.712;2022-12-07T09:56:12;97525.47;;;3.78;84.44
59831;BME280;45711;50.108;13.712;2022-12-07T09:58:38;97518.03;;;3.75;86.53
59831;BME280;45711;50.108;13.712;2022-12-07T10:01:11;97518.19;;;3.69;85.49
59831;BME280;45711;50.108;13.712;2022-12-07T10:03:40;97519.19;;;3.63;83.95
59831;BME280;45711;50.108;13.712;2022-12-07T10:06:11;97511.63;;;3.71;85.75
59831;BME280;45711;50.108;13.712;2022-12-07T10:08:37;97515.22;;;3.65;87.79
59831;BME280;45711;50.108;13.712;2022-12-07T10:11:03;97513.06;;;3.79;84.81
59831;BME280;45711;50.108;13.712;2022-12-07T10:13:35;97530.94;;;3.89;86.06
59831;BME280;45711;50.108;13.712;2022-12-07T10:16:01;97524.66;;;3.39;84.63
59831;BME280;45711;50.108;13.712;2022-12-07T10:18:29;97517.84;;;3.82;88.19
59831;BME280;45711;50.108;13.712;2022-12-07T10:21:15;97512.84;;;4.02;87.76
59831;BME280;45711;50.108;13.712;2022-12-07T10:23:48;97517.34;;;4.02;87.77
59831;BME280;45711;50.108;13.712;2022-12-07T10:26:30;97515.84;;;4.11;86.43
59831;BME280;45711;50.108;13.712;2022-12-07T10:28:59;97519.31;;;3.73;84.54
59831;BME280;45711;50.108;13.712;2022-12-07T10:31:24;97522.16;;;4.05;87.24
59831;BME280;45711;50.108;13.712;2022-12-07T10:33:52;97508.53;;;3.96;83.94
59831;BME280;45711;50.108;13.712;2022-12-07T10:36:22;97516.22;;;3.98;85.37
59831;BME280;45711;50.108;13.712;2022-12-07T10:38:50;97512.25;;;3.78;83.79
59831;BME280;45711;50.108;13.712;2022-12-07T10:41:18;97518.59;;;3.77;83.83
59831;BME280;45711;50.108;13.712;2022-12-07T10:43:52;97509.16;;;3.65;82.83
59831;BME280;45711;50.108;13.712;2022-12-07T10:46:44;97515.94;;;3.77;86.41
59831;BME280;45711;50.108;13.712;2022-12-07T10:49:27;97506.44;;;3.98;84.83
59831;BME280;45711;50.108;13.712;2022-12-07T10:52:07;97501.94;;;4.21;86.45
59831;BME280;45711;50.108;13.712;2022-12-07T10:54:43;97504.25;;;4.17;86.23
59831;BME280;45711;50.108;13.712;2022-12-07T10:57:22;97500.50;;;4.13;86.12
59831;BME280;45711;50.108;13.712;2022-12-07T11:00:02;97495.50;;;4.39;85.99
59831;BME280;45711;50.108;13.712;2022-12-07T11:02:41;97490.66;;;4.31;85.61
59831;BME280;45711;50.108;13.712;2022-12-07T11:05:17;97493.38;;;4.36;85.14
59831;BME280;45711;50.108;13.712;2022-12-07T11:07:59;97500.25;;;4.37;85.31
59831;BME280;45711;50.108;13.712;2022-12-07T11:10:32;97488.88;;;4.14;84.20
59831;BME280;45711;50.108;13.712;2022-12-07T11:13:23;97480.13;;;4.36;85.76
59831;BME280;45711;50.108;13.712;2022-12-07T11:16:02;97471.91;;;4.37;85.41
59831;BME280;45711;50.108;13.712;2022-12-07T11:18:35;97468.91;;;4.28;82.66
59831;BME280;45711;50.108;13.712;2022-12-07T11:21:07;97469.84;;;4.17;86.50
59831;BME280;45711;50.108;13.712;2022-12-07T11:23:44;97472.75;;;4.16;85.75
59831;BME280;45711;50.108;13.712;2022-12-07T11:26:21;97468.63;;;4.03;86.32
59831;BME280;45711;50.108;13.712;2022-12-07T11:29:03;97470.72;;;4.01;85.35
59831;BME280;45711;50.108;13.712;2022-12-07T11:31:38;97461.41;;;4.20;86.07
59831;BME280;45711;50.108;13.712;2022-12-07T11:34:16;97465.09;;;4.19;83.20
59831;BME280;45711;50.108;13.712;2022-12-07T11:36:50;97467.31;;;4.27;84.77
59831;BME280;45711;50.108;13.712;2022-12-07T11:39:25;97458.97;;;4.14;83.67
59831;BME280;45711;50.108;13.712;2022-12-07T11:41:55;97454.91;;;4.06;85.30
59831;BME280;45711;50.108;13.712;2022-12-07T11:44:27;97450.44;;;4.12;85.41
59831;BME280;45711;50.108;13.712;2022-12-07T11:47:02;97453.16;;;4.17;84.58
59831;BME280;45711;50.108;13.712;2022-12-07T11:49:40;97450.44;;;4.12;83.78
59831;BME280;45711;50.108;13.712;2022-12-07T11:52:16;97452.91;;;4.18;84.35
59831;BME280;45711;50.108;13.712;2022-12-07T11:54:45;97452.22;;;4.28;84.26
59831;BME280;45711;50.108;13.712;2022-12-07T11:57:17;97451.16;;;4.29;84.54
59831;BME280;45711;50.108;13.712;2022-12-07T11:59:48;97448.38;;;4.41;84.72
59831;BME280;45711;50.108;13.712;2022-12-07T12:02:16;97442.44;;;4.28;84.57
59831;BME280;45711;50.108;13.712;2022-12-07T12:04:51;97442.22;;;4.35;83.20
59831;BME280;45711;50.108;13.712;2022-12-07T12:07:22;97441.75;;;4.16;83.29
59831;BME280;45711;50.108;13.712;2022-12-07T12:09:52;97442.44;;;4.28;84.72
59831;BME280;45711;50.108;13.712;2022-12-07T12:12:32;97438.53;;;4.36;83.10
59831;BME280;45711;50.108;13.712;2022-12-07T12:15:08;97442.91;;;4.25;84.22
59831;BME280;45711;50.108;13.712;2022-12-07T12:17:53;97433.69;;;4.28;83.75
59831;BME280;45711;50.108;13.712;2022-12-07T12:20:26;97426.13;;;4.15;82.34
59831;BME280;45711;50.108;13.712;2022-12-07T12:22:58;97430.72;;;4.24;83.77
59831;BME280;45711;50.108;13.712;2022-12-07T12:25:28;97437.44;;;4.32;82.49
59831;BME280;45711;50.108;13.712;2022-12-07T12:27:58;97440.75;;;4.44;84.46
59831;BME280;45711;50.108;13.712;2022-12-07T12:30:34;97435.63;;;4.38;83.72
59831;BME280;45711;50.108;13.712;2022-12-07T12:33:05;97435.84;;;4.31;82.16
59831;BME280;45711;50.108;13.712;2022-12-07T12:35:33;97432.97;;;4.38;84.01
59831;BME280;45711;50.108;13.712;2022-12-07T12:38:21;97434.34;;;4.40;81.98
59831;BME280;45711;50.108;13.712;2022-12-07T12:40:51;97433.41;;;4.29;81.09
59831;BME280;45711;50.108;13.712;2022-12-07T12:43:49;97422.16;;;4.17;82.02
59831;BME280;45711;50.108;13.712;2022-12-07T12:49:34;97428.69;;;4.32;82.90
59831;BME280;45711;50.108;13.712;2022-12-07T12:52:01;97430.53;;;4.31;82.31
59831;BME280;45711;50.108;13.712;2022-12-07T12:54:58;97438.94;;;4.23;80.87
59831;BME280;45711;50.108;13.712;2022-12-07T12:57:28;97431.91;;;4.39;84.09
59831;BME280;45711;50.108;13.712;2022-12-07T12:59:57;97433.53;;;4.40;83.91
59831;BME280;45711;50.108;13.712;2022-12-07T13:02:25;97429.09;;;4.18;82.60
59831;BME280;45711;50.108;13.712;2022-12-07T13:04:53;97427.31;;;4.29;83.40
59831;BME280;45711;50.108;13.712;2022-12-07T13:07:50;97425.25;;;4.31;83.73
59831;BME280;45711;50.108;13.712;2022-12-07T13:10:22;97427.47;;;4.17;82.71
59831;BME280;45711;50.108;13.712;2022-12-07T13:12:56;97422.03;;;4.29;83.75
59831;BME280;45711;50.108;13.712;2022-12-07T13:15:35;97411.19;;;4.31;80.59
59831;BME280;45711;50.108;13.712;2022-12-07T13:18:03;97415.09;;;4.23;80.69
59831;BME280;45711;50.108;13.712;2022-12-07T13:20:54;97417.44;;;4.19;79.93